createdAt,value
2019-03-08T00:05:07.027Z,72.48
2019-03-08T00:07:42.123Z,71.95
2019-03-08T00:10:10.834Z,71.88
2019-03-08T00:12:42.619Z,71.61
2019-03-08T00:15:15.268Z,71.55
2019-03-08T00:17:43.948Z,71.90
2019-03-08T00:20:12.927Z,71.72
2019-03-08T00:22:44.200Z,71.32
2019-03-08T00:25:16.598Z,71.49
2019-03-08T00:27:45.244Z,71.95
2019-03-08T00:30:18.054Z,71.85
2019-03-08T00:32:49.955Z,72.60
2019-03-08T00:35:18.567Z,72.32
2019-03-08T00:37:49.978Z,72.72
2019-03-08T00:40:21.746Z,73.23
2019-03-08T00:42:50.363Z,72.39
2019-03-08T00:45:19.357Z,72.92
2019-03-08T00:47:50.964Z,73.35
2019-03-08T00:50:22.245Z,73.35
2019-03-08T00:52:53.939Z,73.88
2019-03-08T00:55:22.610Z,73.91
2019-03-08T00:57:51.255Z,74.16
2019-03-08T01:00:21.765Z,73.77
2019-03-08T01:02:50.434Z,73.76
2019-03-08T01:05:19.460Z,74.04
2019-03-08T01:07:48.170Z,73.65
2019-03-08T01:10:22.306Z,73.84
2019-03-08T01:12:51.019Z,73.88
2019-03-08T01:15:19.824Z,72.95
2019-03-08T01:17:48.548Z,73.92
2019-03-08T01:20:18.662Z,73.10
2019-03-08T01:22:50.783Z,73.73
2019-03-08T01:25:21.456Z,73.67
2019-03-08T01:28:01.597Z,73.85
2019-03-08T01:30:34.102Z,73.56
2019-03-08T01:33:05.450Z,72.46
2019-03-08T01:35:37.414Z,72.90
2019-03-08T01:38:12.281Z,73.18
2019-03-08T01:40:44.079Z,72.96
2019-03-08T01:43:15.673Z,72.84
2019-03-08T01:45:44.239Z,72.94
2019-03-08T01:48:15.463Z,72.76
2019-03-08T01:50:44.892Z,73.13
2019-03-08T01:53:13.499Z,73.49
2019-03-08T01:55:42.063Z,72.36
2019-03-08T01:58:14.100Z,72.09
2019-03-08T02:00:42.858Z,72.31
2019-03-08T02:03:11.466Z,72.30
2019-03-08T02:05:40.154Z,71.79
2019-03-08T02:08:11.650Z,72.12
2019-03-08T02:10:43.311Z,71.98
2019-03-08T02:13:11.857Z,72.12
2019-03-08T02:15:43.561Z,71.03
2019-03-08T02:18:15.387Z,71.20
2019-03-08T02:20:44.415Z,70.71
2019-03-08T02:23:15.797Z,70.11
2019-03-08T02:25:47.687Z,70.57
2019-03-08T02:28:18.965Z,70.46
2019-03-08T02:30:47.597Z,70.63
2019-03-08T02:33:19.285Z,71.71
2019-03-08T02:35:47.930Z,70.67
2019-03-08T02:38:19.375Z,71.18
2019-03-08T02:40:51.049Z,71.50
2019-03-08T02:43:22.633Z,70.52
2019-03-08T02:45:53.900Z,70.38
2019-03-08T02:48:25.584Z,71.02
2019-03-08T02:50:54.190Z,70.11
2019-03-08T02:53:28.638Z,69.87
2019-03-08T02:55:57.250Z,70.67
2019-03-08T02:58:28.845Z,69.51
2019-03-08T03:01:00.222Z,69.78
2019-03-08T03:03:31.598Z,69.80
2019-03-08T03:06:00.216Z,70.22
2019-03-08T03:08:31.596Z,69.18
2019-03-08T03:11:03.182Z,69.47
2019-03-08T03:13:34.469Z,69.32
2019-03-08T03:16:03.313Z,70.47
2019-03-08T03:18:34.858Z,69.47
2019-03-08T03:21:04.393Z,69.56
2019-03-08T03:23:35.868Z,70.46
2019-03-08T03:26:07.469Z,69.85
2019-03-08T03:28:38.713Z,69.82
2019-03-08T03:31:07.762Z,70.31
2019-03-08T03:33:42.114Z,69.20
2019-03-08T03:36:10.743Z,69.82
2019-03-08T03:38:42.527Z,69.86
2019-03-08T03:41:14.118Z,69.99
2019-03-08T03:43:46.007Z,69.04
2019-03-08T03:46:18.108Z,68.66
2019-03-08T03:48:50.010Z,68.47
2019-03-08T03:51:18.564Z,68.20
2019-03-08T03:53:50.550Z,68.13
2019-03-08T03:56:19.165Z,68.10
2019-03-08T03:58:50.442Z,67.44
2019-03-08T04:01:26.679Z,67.28
2019-03-08T04:03:55.238Z,67.23
2019-03-08T04:06:24.049Z,66.94
2019-03-08T04:08:55.533Z,67.44
2019-03-08T04:11:24.105Z,67.67
2019-03-08T04:13:55.618Z,67.15
2019-03-08T04:16:24.229Z,67.44
2019-03-08T04:18:55.907Z,67.47
2019-03-08T04:21:24.728Z,67.57
2019-03-08T04:23:53.333Z,67.42
2019-03-08T04:26:24.949Z,66.74
2019-03-08T04:28:56.335Z,66.88
2019-03-08T04:31:27.601Z,67.16
2019-03-08T04:33:59.182Z,66.68
2019-03-08T04:36:27.753Z,67.66
2019-03-08T04:38:59.371Z,67.66
2019-03-08T04:41:30.744Z,68.20
2019-03-08T04:44:02.256Z,68.50
2019-03-08T04:46:30.933Z,68.72
2019-03-08T04:48:59.546Z,68.83
2019-03-08T04:51:30.712Z,68.86
2019-03-08T04:54:02.104Z,68.82
2019-03-08T04:56:33.489Z,69.77
2019-03-08T04:59:05.077Z,69.64
2019-03-08T05:01:34.012Z,70.32
2019-03-08T05:04:05.786Z,69.74
2019-03-08T05:06:34.344Z,69.63
2019-03-08T05:09:09.531Z,69.66
2019-03-08T05:11:38.502Z,69.99
2019-03-08T05:14:10.079Z,68.55
2019-03-08T05:16:38.688Z,69.43
2019-03-08T05:19:10.268Z,69.01
2019-03-08T05:21:38.877Z,68.56
2019-03-08T05:24:11.106Z,68.38
2019-03-08T05:26:42.371Z,68.69
2019-03-08T05:29:10.980Z,68.16
2019-03-08T05:31:42.870Z,68.56
2019-03-08T05:34:14.448Z,68.15
2019-03-08T05:36:43.261Z,67.87
2019-03-08T05:39:14.742Z,67.38
2019-03-08T05:41:43.349Z,66.67
2019-03-08T05:44:14.721Z,67.69
2019-03-08T05:46:46.306Z,66.20
2019-03-08T05:49:15.226Z,65.50
2019-03-08T05:51:43.856Z,65.37
2019-03-08T05:54:13.267Z,65.20
2019-03-08T05:56:44.636Z,64.81
2019-03-08T05:59:15.958Z,64.76
2019-03-08T06:01:47.945Z,63.81
2019-03-08T06:04:16.559Z,63.23
2019-03-08T06:06:45.104Z,63.66
2019-03-08T06:09:16.550Z,63.39
2019-03-08T06:11:45.467Z,63.33
2019-03-08T06:14:17.042Z,63.39
2019-03-08T06:16:49.131Z,62.04
2019-03-08T06:19:18.050Z,61.54
2019-03-08T06:21:46.662Z,62.60
2019-03-08T06:24:15.271Z,62.51
2019-03-08T06:26:46.865Z,62.18
2019-03-08T06:29:15.482Z,61.84
2019-03-08T06:31:44.294Z,61.45
2019-03-08T06:34:15.594Z,61.44
2019-03-08T06:36:47.062Z,61.40
2019-03-08T06:39:15.672Z,61.81
2019-03-08T06:41:44.678Z,60.94
2019-03-08T06:44:16.218Z,61.14
2019-03-08T06:46:47.749Z,61.26
2019-03-08T06:49:19.886Z,60.78
2019-03-08T06:51:48.468Z,60.31
2019-03-08T06:54:17.484Z,61.25
2019-03-08T06:56:48.973Z,61.37
2019-03-08T06:59:19.225Z,61.28
2019-03-08T07:01:50.602Z,60.54
2019-03-08T07:04:19.206Z,60.42
2019-03-08T07:06:47.819Z,60.01
2019-03-08T07:09:19.235Z,59.90
2019-03-08T07:11:48.211Z,59.61
2019-03-08T07:14:16.778Z,59.99
2019-03-08T07:16:48.377Z,59.77
2019-03-08T07:19:19.904Z,60.26
2019-03-08T07:22:02.766Z,60.99
2019-03-08T07:24:33.005Z,60.38
2019-03-08T07:27:12.477Z,60.53
2019-03-08T07:30:01.873Z,60.97
2019-03-08T07:32:44.163Z,60.87
2019-03-08T07:35:17.228Z,60.79
2019-03-08T07:38:02.339Z,60.69
2019-03-08T07:40:35.663Z,60.23
2019-03-08T07:43:25.314Z,60.58
2019-03-08T07:46:00.140Z,61.14
2019-03-08T07:48:47.068Z,60.82
2019-03-08T07:51:29.347Z,60.46
2019-03-08T07:54:08.321Z,60.82
2019-03-08T07:56:41.281Z,60.76
2019-03-08T07:59:30.390Z,60.61
2019-03-08T08:02:20.790Z,61.58
2019-03-08T08:04:50.997Z,60.40
2019-03-08T08:07:23.970Z,61.04
2019-03-08T08:10:02.803Z,61.57
2019-03-08T08:12:35.441Z,60.94
2019-03-08T08:15:10.231Z,60.69
2019-03-08T08:17:46.464Z,60.88
2019-03-08T08:20:20.215Z,61.06
2019-03-08T08:22:56.299Z,60.96
2019-03-08T08:25:45.409Z,60.31
2019-03-08T08:28:31.734Z,61.18
2019-03-08T08:31:21.036Z,60.24
2019-03-08T08:33:53.907Z,60.27
2019-03-08T08:36:24.454Z,60.46
2019-03-08T08:38:57.565Z,60.94
2019-03-08T08:41:46.541Z,60.98
2019-03-08T08:44:16.726Z,60.30
2019-03-08T08:46:49.654Z,60.72
2019-03-08T08:49:25.376Z,60.56
2019-03-08T08:52:01.825Z,61.41
2019-03-08T08:54:34.939Z,61.07
2019-03-08T08:57:05.145Z,61.27
2019-03-08T08:59:35.343Z,60.77
2019-03-08T09:02:08.741Z,60.92
2019-03-08T09:04:45.106Z,60.97
2019-03-08T09:07:15.712Z,61.25
2019-03-08T09:09:54.459Z,61.32
2019-03-08T09:12:25.196Z,61.18
2019-03-08T09:15:14.250Z,60.55
2019-03-08T09:17:50.572Z,60.64
2019-03-08T09:20:37.231Z,61.27
2019-03-08T09:23:07.483Z,60.58
2019-03-08T09:25:40.339Z,61.20
2019-03-08T09:28:12.169Z,62.35
2019-03-08T09:30:56.909Z,62.49
2019-03-08T09:33:32.831Z,61.78
2019-03-08T09:36:05.825Z,62.31
2019-03-08T09:38:44.310Z,65.32
2019-03-08T09:41:23.755Z,63.59
2019-03-08T09:43:54.839Z,64.08
2019-03-08T09:46:28.421Z,64.33
2019-03-08T09:49:02.621Z,64.38
2019-03-08T09:51:41.607Z,63.26
2019-03-08T09:54:18.430Z,64.36
2019-03-08T09:56:54.420Z,66.43
2019-03-08T09:59:39.724Z,69.93
2019-03-08T10:02:12.778Z,72.04
2019-03-08T10:04:59.228Z,71.60
2019-03-08T10:07:41.563Z,69.92
2019-03-08T10:10:12.121Z,70.73
2019-03-08T10:12:44.916Z,71.17
2019-03-08T10:15:34.644Z,73.25
2019-03-08T10:18:07.894Z,72.25
2019-03-08T10:20:50.949Z,73.21
2019-03-08T10:23:37.200Z,70.81
2019-03-08T10:26:13.664Z,70.34
2019-03-08T10:28:46.325Z,71.39
2019-03-08T10:31:34.627Z,71.75
2019-03-08T10:34:07.840Z,69.99
2019-03-08T10:36:54.333Z,68.38
2019-03-08T10:39:24.555Z,68.13
2019-03-08T10:41:54.815Z,66.89
2019-03-08T10:44:32.676Z,66.04
2019-03-08T10:47:06.593Z,65.15
2019-03-08T10:49:56.108Z,65.18
2019-03-08T10:52:41.519Z,65.85
2019-03-08T10:55:13.583Z,65.16
2019-03-08T10:57:43.768Z,65.91
2019-03-08T11:00:31.926Z,66.64
2019-03-08T11:03:16.994Z,71.08
2019-03-08T11:05:47.210Z,76.91
2019-03-08T11:08:34.464Z,80.75
2019-03-08T11:11:11.718Z,84.99
2019-03-08T11:13:43.551Z,87.84
2019-03-08T11:16:28.938Z,88.07
2019-03-08T11:19:08.517Z,89.14
2019-03-08T11:21:33.774Z,88.14
2019-03-08T11:24:04.624Z,89.60
2019-03-08T11:27:04.787Z,88.01
2019-03-08T11:29:29.931Z,86.82
2019-03-08T11:32:23.002Z,84.93
2019-03-08T11:34:57.176Z,85.02
2019-03-08T11:37:45.524Z,85.40
2019-03-08T11:40:34.319Z,83.43
2019-03-08T11:43:20.724Z,81.78
2019-03-08T11:46:08.416Z,81.54
2019-03-08T11:48:44.306Z,81.52
2019-03-08T11:51:19.211Z,80.93
2019-03-08T11:53:56.188Z,80.13
2019-03-08T11:56:39.792Z,79.79
2019-03-08T11:59:19.418Z,79.90
2019-03-08T12:01:56.018Z,75.98
2019-03-08T12:04:40.691Z,77.30
2019-03-08T12:07:12.659Z,76.13
2019-03-08T12:09:42.921Z,76.18
2019-03-08T12:12:15.783Z,72.89
2019-03-08T12:15:02.565Z,73.46
2019-03-08T12:17:44.774Z,73.45
2019-03-08T12:20:15.106Z,74.94
2019-03-08T12:22:48.364Z,73.96
2019-03-08T12:25:21.514Z,74.02
2019-03-08T12:27:57.922Z,75.44
2019-03-08T12:30:30.821Z,72.75
2019-03-08T12:33:01.039Z,71.45
2019-03-08T12:35:40.147Z,72.04
2019-03-08T12:38:16.301Z,71.18
2019-03-08T12:41:02.799Z,72.76
2019-03-08T12:43:33.099Z,69.29
2019-03-08T12:46:12.372Z,68.94
2019-03-08T12:48:42.586Z,69.54
2019-03-08T12:51:12.794Z,71.01
2019-03-08T12:53:59.457Z,71.12
2019-03-08T12:56:32.725Z,70.30
2019-03-08T12:59:05.990Z,70.31
2019-03-08T13:01:44.586Z,68.29
2019-03-08T13:04:15.632Z,68.85
2019-03-08T13:06:48.833Z,68.12
2019-03-08T13:09:37.520Z,69.91
2019-03-08T13:12:06.211Z,70.45
2019-03-08T13:14:36.730Z,70.46
2019-03-08T13:17:08.578Z,68.32
2019-03-08T13:19:40.044Z,69.57
2019-03-08T13:22:08.665Z,68.56
2019-03-08T13:24:39.915Z,66.12
2019-03-08T13:27:11.540Z,63.64
2019-03-08T13:29:40.155Z,62.38
2019-03-08T13:32:11.725Z,61.25
2019-03-08T13:34:40.298Z,62.65
2019-03-08T13:37:09.247Z,63.68
2019-03-08T13:39:39.364Z,61.07
2019-03-08T13:42:13.659Z,62.07
2019-03-08T13:44:44.912Z,61.73
2019-03-08T13:47:13.474Z,60.86
2019-03-08T13:49:42.052Z,61.34
2019-03-08T13:52:13.099Z,60.31
2019-03-08T13:54:41.693Z,59.83
2019-03-08T13:57:12.931Z,58.26
2019-03-08T13:59:44.676Z,58.13
2019-03-08T14:02:16.102Z,59.24
2019-03-08T14:04:44.666Z,59.24
2019-03-08T14:07:13.598Z,59.13
2019-03-08T14:09:45.289Z,58.21
2019-03-08T14:12:14.029Z,58.09
2019-03-08T14:14:42.570Z,60.85
2019-03-08T14:17:14.083Z,58.59
2019-03-08T14:19:45.593Z,58.20
2019-03-08T14:22:14.176Z,57.39
2019-03-08T14:24:46.518Z,57.85
2019-03-08T14:27:20.649Z,60.63
2019-03-08T14:29:55.176Z,60.24
2019-03-08T14:32:25.284Z,61.13
2019-03-08T14:34:56.085Z,61.29
2019-03-08T14:37:27.698Z,62.66
2019-03-08T14:39:56.246Z,63.76
2019-03-08T14:42:29.360Z,65.10
2019-03-08T14:45:11.295Z,65.77
2019-03-08T14:47:39.871Z,65.55
2019-03-08T14:50:10.365Z,66.28
2019-03-08T14:52:39.062Z,66.40
2019-03-08T14:55:14.942Z,63.49
2019-03-08T14:57:43.515Z,64.88
2019-03-08T15:00:15.432Z,62.14
2019-03-08T15:02:48.533Z,61.41
2019-03-08T15:05:19.119Z,59.46
2019-03-08T15:07:47.835Z,58.37
2019-03-08T15:10:18.304Z,58.62
2019-03-08T15:12:49.703Z,60.89
2019-03-08T15:15:18.650Z,57.16
2019-03-08T15:17:53.509Z,58.35
2019-03-08T15:20:20.836Z,58.24
2019-03-08T15:22:49.719Z,56.84
2019-03-08T15:25:18.340Z,56.21
2019-03-08T15:27:46.949Z,58.24
2019-03-08T15:30:20.083Z,57.65
2019-03-08T15:32:48.645Z,55.52
2019-03-08T15:35:17.959Z,55.48
2019-03-08T15:37:46.790Z,54.84
2019-03-08T15:40:22.279Z,54.28
2019-03-08T15:42:51.170Z,55.65
2019-03-08T15:45:19.747Z,56.67
2019-03-08T15:47:51.430Z,56.25
2019-03-08T15:50:22.235Z,57.60
2019-03-08T15:52:53.462Z,55.63
2019-03-08T15:55:22.031Z,55.44
2019-03-08T15:57:50.577Z,55.40
2019-03-08T16:00:23.027Z,56.08
2019-03-08T16:02:51.761Z,56.00
2019-03-08T16:05:27.568Z,57.14
2019-03-08T16:07:53.850Z,56.60
2019-03-08T16:10:25.427Z,56.28
2019-03-08T16:12:56.801Z,57.90
2019-03-08T16:15:28.419Z,57.89
2019-03-08T16:17:57.047Z,57.74
2019-03-08T16:20:25.677Z,57.72
2019-03-08T16:22:54.613Z,57.10
2019-03-08T16:25:23.499Z,57.77
2019-03-08T16:27:52.126Z,58.34
2019-03-08T16:30:39.966Z,58.20
2019-03-08T16:36:17.112Z,58.69
2019-03-08T16:38:56.024Z,59.43
2019-03-08T16:41:29.471Z,59.48
2019-03-08T16:44:07.541Z,59.60
2019-03-08T16:46:37.594Z,59.99
2019-03-08T16:49:07.645Z,60.39
2019-03-08T16:51:37.797Z,60.71
2019-03-08T16:54:25.224Z,60.48
2019-03-08T16:56:58.807Z,59.27
2019-03-08T16:59:31.971Z,58.95
2019-03-08T17:02:18.692Z,58.46
2019-03-08T17:07:39.790Z,58.11
2019-03-08T17:10:10.743Z,58.11
2019-03-08T17:13:01.611Z,57.39
2019-03-08T17:15:47.952Z,57.13
2019-03-08T17:18:24.064Z,58.19
2019-03-08T17:21:00.069Z,58.00
2019-03-08T17:23:36.067Z,57.98
2019-03-08T17:26:06.419Z,58.13
2019-03-08T17:28:45.796Z,58.47
2019-03-08T17:31:18.835Z,58.35
2019-03-08T17:33:49.112Z,59.00
2019-03-08T17:36:22.012Z,59.15
2019-03-08T17:38:58.111Z,59.26
2019-03-08T17:41:29.979Z,59.19
2019-03-08T17:44:09.644Z,59.41
2019-03-08T17:49:28.956Z,60.85
2019-03-08T17:52:10.927Z,60.72
2019-03-08T17:54:51.213Z,60.95
2019-03-08T18:00:10.458Z,62.11
2019-03-08T18:02:59.507Z,62.89
2019-03-08T18:05:48.858Z,62.40
2019-03-08T18:08:20.070Z,62.93
2019-03-08T18:11:00.897Z,63.59
2019-03-08T18:13:39.557Z,64.36
2019-03-08T18:16:13.727Z,63.62
2019-03-08T18:18:55.084Z,64.04
2019-03-08T18:21:32.508Z,64.87
2019-03-08T18:24:06.692Z,65.40
2019-03-08T18:26:56.014Z,66.35
2019-03-08T18:29:43.416Z,66.14
2019-03-08T18:32:14.243Z,66.41
2019-03-08T18:35:01.536Z,65.83
2019-03-08T18:40:36.888Z,65.76
2019-03-08T18:43:07.555Z,65.86
2019-03-08T18:45:48.146Z,66.16
2019-03-08T18:48:21.996Z,67.84
2019-03-08T18:51:08.286Z,67.63
2019-03-08T18:53:51.579Z,67.81
2019-03-08T18:56:26.802Z,67.64
2019-03-08T18:59:10.021Z,67.70
2019-03-08T19:01:45.167Z,67.70
2019-03-08T19:04:29.267Z,67.99
2019-03-08T19:07:00.458Z,67.67
2019-03-08T19:09:36.311Z,68.32
2019-03-08T19:12:10.454Z,68.38
2019-03-08T19:14:44.602Z,68.38
2019-03-08T19:17:19.757Z,70.16
2019-03-08T19:20:10.695Z,68.82
2019-03-08T19:22:44.533Z,69.10
2019-03-08T19:25:21.664Z,69.78
2019-03-08T19:27:54.077Z,68.89
2019-03-08T19:30:32.297Z,69.82
2019-03-08T19:35:56.871Z,69.54
2019-03-08T19:38:38.109Z,70.50
2019-03-08T19:41:13.899Z,69.80
2019-03-08T19:44:02.889Z,71.19
2019-03-08T19:46:35.949Z,71.19
2019-03-08T19:49:06.350Z,72.08
2019-03-08T19:51:51.299Z,72.08
2019-03-08T19:54:26.980Z,73.56
2019-03-08T19:57:18.234Z,72.96
2019-03-08T19:59:57.099Z,73.78
2019-03-08T20:02:44.459Z,73.78
2019-03-08T20:05:32.274Z,74.66
2019-03-08T20:08:02.575Z,74.66
2019-03-08T20:10:38.174Z,75.45
2019-03-08T20:13:11.605Z,76.32
2019-03-08T20:15:44.837Z,76.32
2019-03-08T20:18:20.621Z,76.96
2019-03-08T20:20:56.515Z,77.31
2019-03-08T20:23:27.376Z,78.56
2019-03-08T20:26:00.311Z,79.23
2019-03-08T20:28:30.565Z,78.78
2019-03-08T20:31:00.827Z,79.54
2019-03-08T20:33:43.323Z,79.54
2019-03-08T20:36:22.451Z,79.57
2019-03-08T20:39:01.824Z,79.57
2019-03-08T20:41:32.067Z,80.48
2019-03-08T20:44:02.335Z,80.29
2019-03-08T20:46:35.972Z,80.08
2019-03-08T20:49:07.560Z,80.08
2019-03-08T20:51:38.790Z,80.38
2019-03-08T20:54:13.635Z,79.82
2019-03-08T20:56:42.213Z,79.82
2019-03-08T20:59:10.820Z,79.93
2019-03-08T21:01:39.513Z,80.46
2019-03-08T21:04:11.141Z,80.26
2019-03-08T21:06:39.693Z,80.50
2019-03-08T21:09:09.505Z,80.22
2019-03-08T21:11:38.436Z,79.92
2019-03-08T21:14:08.703Z,79.98
2019-03-08T21:16:43.666Z,80.57
2019-03-08T21:19:12.390Z,80.78
2019-03-08T21:21:41.015Z,80.78
2019-03-08T21:24:10.443Z,81.21
2019-03-08T21:26:39.460Z,81.39
2019-03-08T21:29:11.091Z,81.23
2019-03-08T21:31:39.758Z,81.23
2019-03-08T21:34:11.352Z,82.08
2019-03-08T21:36:39.969Z,81.72
2019-03-08T21:39:08.557Z,81.72
2019-03-08T21:41:39.043Z,81.83
2019-03-08T21:44:10.325Z,82.01
2019-03-08T21:46:38.947Z,82.01
2019-03-08T21:49:10.740Z,81.89
2019-03-08T21:51:39.361Z,81.99
2019-03-08T21:54:13.926Z,81.80
2019-03-08T21:56:42.947Z,82.17
2019-03-08T21:59:14.318Z,82.57
2019-03-08T22:01:45.900Z,82.57
2019-03-08T22:04:19.238Z,83.28
2019-03-08T22:06:47.858Z,83.27
2019-03-08T22:09:18.208Z,83.54
2019-03-08T22:11:50.312Z,83.44
2019-03-08T22:14:21.702Z,83.82
2019-03-08T22:16:52.918Z,84.60
2019-03-08T22:19:24.256Z,84.28
2019-03-08T22:21:52.876Z,84.92
2019-03-08T22:24:21.912Z,84.92
2019-03-08T22:26:50.627Z,84.95
2019-03-08T22:29:22.005Z,85.40
2019-03-08T22:31:53.315Z,85.24
2019-03-08T22:34:24.670Z,85.65
2019-03-08T22:36:56.635Z,86.42
2019-03-08T22:39:25.770Z,86.23
2019-03-08T22:41:54.376Z,85.85
2019-03-08T22:44:22.951Z,86.60
2019-03-08T22:46:56.834Z,86.49
2019-03-08T22:49:28.435Z,86.78
2019-03-08T22:51:57.171Z,86.78
2019-03-08T22:54:25.886Z,85.58
2019-03-08T22:56:54.553Z,85.39
2019-03-08T22:59:26.192Z,85.36
2019-03-08T23:01:57.261Z,85.08
2019-03-08T23:04:28.835Z,85.27
2019-03-08T23:06:57.444Z,85.27
2019-03-08T23:09:29.033Z,83.97
2019-03-08T23:12:00.711Z,83.97
2019-03-08T23:14:29.347Z,84.32
2019-03-08T23:17:00.728Z,84.01
2019-03-08T23:19:29.375Z,83.89
2019-03-08T23:21:57.931Z,83.95
2019-03-08T23:24:26.514Z,81.81
2019-03-08T23:27:11.031Z,82.59
2019-03-08T23:29:44.249Z,82.59
2019-03-08T23:32:20.144Z,82.04
2019-03-08T23:34:48.723Z,82.04
2019-03-08T23:37:17.337Z,82.76
2019-03-08T23:39:48.348Z,82.70
2019-03-08T23:42:17.173Z,83.62
2019-03-08T23:44:46.925Z,83.62
2019-03-08T23:47:18.612Z,83.00
2019-03-08T23:49:47.863Z,83.08
2019-03-08T23:52:16.421Z,82.19
2019-03-08T23:54:44.968Z,82.19
2019-03-08T23:57:16.781Z,82.38
2019-03-08T23:59:45.408Z,82.82
